Time;durP1;ratioP1;P1;durP2;ratioP2;P2;SDS_P1;SDS_P2;PMS_P1;PMS_P2;Temp;Humidity;BMP_temperature;BMP_pressure;BME280_temperature;BME280_humidity;BME280_pressure;Samples;Min_cycle;Max_cycle;Signal;HPM_P1;HPM_P2
2020/12/15 00:01:54;;;;;;;3.43;2.90;;;8.80;99.90;;;;;;4974831;28;20944;-76
2020/12/15 00:04:20;;;;;;;2.80;2.43;;;8.70;99.90;;;;;;4974664;28;20226;-76
2020/12/15 00:06:46;;;;;;;2.87;2.67;;;8.70;99.90;;;;;;4955949;28;20427;-76
2020/12/15 00:09:12;;;;;;;4.77;3.23;;;8.70;99.90;;;;;;4964975;28;20930;-76
2020/12/15 00:11:38;;;;;;;4.80;2.50;;;8.70;99.90;;;;;;4975162;28;20600;-76
2020/12/15 00:14:03;;;;;;;3.30;2.23;;;8.70;99.90;;;;;;4974493;28;20210;-76
2020/12/15 00:16:29;;;;;;;3.63;2.13;;;8.70;99.90;;;;;;4963385;28;20178;-76
2020/12/15 00:18:55;;;;;;;3.57;2.23;;;8.60;99.90;;;;;;4970229;28;20678;-76
2020/12/15 00:21:22;;;;;;;3.07;2.00;;;8.70;99.90;;;;;;4961168;28;20435;-76
2020/12/15 00:23:52;;;;;;;3.38;1.92;;;8.80;99.90;;;;;;4974076;28;20233;-76
2020/12/15 00:26:19;;;;;;;3.47;2.20;;;9.00;99.90;;;;;;4971102;28;20702;-76
2020/12/15 00:28:45;;;;;;;3.90;2.53;;;9.00;99.90;;;;;;4968196;28;20424;-76
2020/12/15 00:31:10;;;;;;;2.17;1.98;;;9.00;99.90;;;;;;4974221;28;20188;-77
2020/12/15 00:33:36;;;;;;;4.80;2.40;;;9.10;99.90;;;;;;4974363;28;20258;-77
2020/12/15 00:36:03;;;;;;;3.50;2.30;;;9.10;99.90;;;;;;4960214;28;20462;-76
2020/12/15 00:38:28;;;;;;;2.88;2.00;;;9.10;99.90;;;;;;4967591;28;20415;-77
2020/12/15 00:40:54;;;;;;;2.77;2.00;;;9.10;99.90;;;;;;4972818;28;21949;-77
2020/12/15 00:43:20;;;;;;;3.50;2.27;;;9.10;99.90;;;;;;4973959;28;20256;-77
2020/12/15 00:45:46;;;;;;;2.55;2.00;;;9.10;99.90;;;;;;4966921;28;20263;-77
2020/12/15 00:48:12;;;;;;;2.70;2.00;;;9.10;99.90;;;;;;4965460;28;20183;-77
2020/12/15 00:50:38;;;;;;;3.50;2.75;;;9.10;99.90;;;;;;4973841;28;20209;-77
2020/12/15 00:53:04;;;;;;;4.47;4.13;;;9.00;99.90;;;;;;4974346;28;20172;-76
2020/12/15 00:55:30;;;;;;;2.65;2.15;;;9.10;99.90;;;;;;4969146;28;20207;-76
2020/12/15 00:57:55;;;;;;;3.10;2.20;;;9.10;99.90;;;;;;4957949;28;20183;-76
2020/12/15 01:00:21;;;;;;;4.07;2.20;;;9.00;99.90;;;;;;4972779;28;20302;-76
2020/12/15 01:02:47;;;;;;;2.20;2.00;;;9.00;99.90;;;;;;4974149;28;20543;-76
2020/12/15 01:05:12;;;;;;;3.80;2.77;;;9.00;99.90;;;;;;4968994;28;20219;-76
2020/12/15 01:07:38;;;;;;;3.47;2.70;;;9.00;99.90;;;;;;4957671;28;20174;-77
2020/12/15 01:10:05;;;;;;;4.03;2.80;;;9.00;99.90;;;;;;4972280;28;20587;-76
2020/12/15 01:12:31;;;;;;;4.65;3.03;;;9.00;99.90;;;;;;4972786;28;20192;-77
2020/12/15 01:14:56;;;;;;;2.97;2.67;;;9.00;99.90;;;;;;4973373;28;20220;-77
2020/12/15 01:17:22;;;;;;;3.57;2.40;;;8.90;99.90;;;;;;4961735;28;20675;-77
2020/12/15 01:19:48;;;;;;;3.40;2.73;;;8.80;99.90;;;;;;4973481;28;20222;-77
2020/12/15 01:22:14;;;;;;;2.83;2.63;;;8.80;99.90;;;;;;4973686;28;20201;-77
2020/12/15 01:24:39;;;;;;;3.23;2.43;;;8.80;99.90;;;;;;4971749;28;20219;-77
2020/12/15 01:27:06;;;;;;;2.13;1.77;;;8.80;99.90;;;;;;4978631;28;20187;-77
2020/12/15 01:29:31;;;;;;;3.77;2.53;;;8.80;99.90;;;;;;4975339;28;20207;-77
2020/12/15 01:32:01;;;;;;;3.03;2.73;;;8.80;99.90;;;;;;4973559;28;20438;-77
2020/12/15 01:34:27;;;;;;;5.13;2.40;;;8.80;99.90;;;;;;4972512;28;20223;-77
2020/12/15 01:36:53;;;;;;;3.80;2.50;;;8.90;99.90;;;;;;4959274;28;20182;-76
2020/12/15 01:39:19;;;;;;;3.20;2.33;;;9.10;99.90;;;;;;4965137;28;20748;-76
2020/12/15 01:41:44;;;;;;;3.77;2.53;;;9.20;99.90;;;;;;4973169;28;20951;-76
2020/12/15 01:44:10;;;;;;;4.40;3.07;;;9.30;99.90;;;;;;4972956;28;20303;-76
2020/12/15 01:46:36;;;;;;;4.00;2.50;;;9.30;99.90;;;;;;4960520;28;20699;-76
2020/12/15 01:49:02;;;;;;;4.47;2.57;;;9.40;99.90;;;;;;4972680;28;20209;-76
2020/12/15 01:51:29;;;;;;;4.95;3.10;;;9.50;99.90;;;;;;4973071;28;20193;-76
2020/12/15 01:53:59;;;;;;;3.70;2.83;;;9.40;99.90;;;;;;4972358;28;20273;-76
2020/12/15 01:56:27;;;;;;;2.30;1.97;;;9.50;99.90;;;;;;4963248;28;20906;-77
2020/12/15 01:58:55;;;;;;;3.00;2.50;;;9.50;99.90;;;;;;4953690;28;20457;-77
2020/12/15 02:01:22;;;;;;;4.53;3.47;;;9.50;99.90;;;;;;4969163;28;20468;-77
2020/12/15 02:03:48;;;;;;;3.47;2.97;;;9.60;99.90;;;;;;4972223;28;20421;-77
2020/12/15 02:06:14;;;;;;;3.60;2.90;;;9.60;99.90;;;;;;4968515;28;20486;-77
2020/12/15 02:08:42;;;;;;;5.72;4.15;;;9.50;99.90;;;;;;4968340;28;20428;-77
2020/12/15 02:11:08;;;;;;;6.53;3.33;;;9.50;99.90;;;;;;4972959;28;20185;-78
2020/12/15 02:13:35;;;;;;;4.07;2.85;;;9.50;99.90;;;;;;4970773;28;20435;-77
2020/12/15 02:16:00;;;;;;;6.40;3.50;;;9.50;99.90;;;;;;4953739;28;20548;-77
2020/12/15 02:18:29;;;;;;;4.73;3.27;;;9.40;99.90;;;;;;4968532;28;20431;-77
2020/12/15 02:20:55;;;;;;;4.73;3.90;;;9.50;99.90;;;;;;4971696;28;20218;-77
2020/12/15 02:23:21;;;;;;;4.23;2.87;;;9.50;99.90;;;;;;4972816;28;20426;-77
2020/12/15 02:25:47;;;;;;;4.10;3.37;;;9.50;99.90;;;;;;4971480;28;20314;-78
2020/12/15 02:28:12;;;;;;;3.53;3.00;;;9.50;99.90;;;;;;4972712;28;20792;-78
2020/12/15 02:30:38;;;;;;;3.70;2.97;;;9.60;99.90;;;;;;4971877;28;20198;-77
2020/12/15 02:33:04;;;;;;;3.60;2.80;;;9.60;99.90;;;;;;4972481;28;20499;-77
2020/12/15 02:35:30;;;;;;;3.43;3.13;;;9.60;99.90;;;;;;4967859;28;20534;-76
2020/12/15 02:37:56;;;;;;;3.20;2.90;;;9.50;99.90;;;;;;4961837;28;20921;-77
2020/12/15 02:40:21;;;;;;;3.43;2.73;;;9.50;99.90;;;;;;4971768;28;20207;-77
2020/12/15 02:42:47;;;;;;;3.20;2.93;;;9.50;99.90;;;;;;4970533;28;20562;-77
2020/12/15 02:45:13;;;;;;;3.00;2.70;;;9.40;99.90;;;;;;4966380;28;20255;-76
2020/12/15 02:47:38;;;;;;;4.07;3.20;;;9.40;99.90;;;;;;4965718;28;20184;-76
2020/12/15 02:50:04;;;;;;;4.20;3.00;;;9.40;99.90;;;;;;4971947;28;20214;-77
2020/12/15 02:52:30;;;;;;;4.93;3.30;;;9.40;99.90;;;;;;4972186;28;20276;-77
2020/12/15 02:54:56;;;;;;;3.83;3.10;;;9.30;99.90;;;;;;4959396;28;20538;-78
2020/12/15 02:57:22;;;;;;;3.37;3.07;;;9.30;99.90;;;;;;4968415;28;20638;-77
2020/12/15 02:59:47;;;;;;;3.67;3.00;;;9.40;99.90;;;;;;4967361;28;20231;-77
2020/12/15 03:02:20;;;;;;;4.97;3.50;;;9.40;99.90;;;;;;4972052;28;20203;-77
2020/12/15 03:04:46;;;;;;;4.00;3.60;;;9.40;99.90;;;;;;4963942;28;20560;-77
2020/12/15 03:07:13;;;;;;;4.13;3.60;;;9.40;99.90;;;;;;4963833;28;21005;-77
2020/12/15 03:09:39;;;;;;;3.80;3.33;;;9.40;99.90;;;;;;4972109;28;20447;-77
2020/12/15 03:12:05;;;;;;;4.23;3.70;;;9.40;99.90;;;;;;4972206;28;20189;-78
2020/12/15 03:14:31;;;;;;;5.53;3.53;;;9.40;99.90;;;;;;4971690;28;20435;-77
2020/12/15 03:16:56;;;;;;;3.53;3.23;;;9.40;99.90;;;;;;4953428;28;20204;-78
2020/12/15 03:19:22;;;;;;;4.03;2.70;;;9.50;99.90;;;;;;4962674;28;20440;-79
2020/12/15 03:21:48;;;;;;;3.57;3.27;;;9.50;99.90;;;;;;4973654;28;20181;-79
2020/12/15 03:24:13;;;;;;;3.67;3.37;;;9.60;99.90;;;;;;4976795;28;20216;-78
2020/12/15 03:26:39;;;;;;;3.10;2.90;;;9.60;99.90;;;;;;4968237;28;20183;-78
2020/12/15 03:29:05;;;;;;;3.90;2.97;;;9.50;99.90;;;;;;4975125;28;20213;-79
2020/12/15 03:31:31;;;;;;;3.80;3.07;;;9.40;99.90;;;;;;4974730;28;20195;-79
2020/12/15 03:33:57;;;;;;;4.30;3.13;;;9.40;99.90;;;;;;4975451;28;20205;-78
2020/12/15 03:36:22;;;;;;;4.43;4.13;;;9.40;99.90;;;;;;4973681;28;20547;-79
2020/12/15 03:38:48;;;;;;;3.57;3.27;;;9.30;99.90;;;;;;4987701;28;20241;-79
2020/12/15 03:41:14;;;;;;;4.27;3.30;;;9.30;99.90;;;;;;4988893;28;20773;-79
2020/12/15 03:43:40;;;;;;;3.93;2.97;;;9.40;99.90;;;;;;4973250;28;20218;-78
2020/12/15 03:46:06;;;;;;;5.23;3.13;;;9.40;99.90;;;;;;4957582;28;20195;-79
2020/12/15 03:48:31;;;;;;;5.03;3.60;;;9.30;99.90;;;;;;4969673;28;20414;-78
2020/12/15 03:50:57;;;;;;;4.30;3.10;;;9.30;99.90;;;;;;4975067;28;20561;-78
2020/12/15 03:53:22;;;;;;;5.83;3.83;;;9.40;99.90;;;;;;4975680;28;20171;-78
2020/12/15 03:55:48;;;;;;;3.30;2.47;;;9.40;99.90;;;;;;4960841;28;20214;-77
2020/12/15 03:58:15;;;;;;;4.17;3.23;;;9.40;99.90;;;;;;4985922;28;20272;-77
2020/12/15 04:00:41;;;;;;;3.37;3.00;;;9.50;99.90;;;;;;4974865;28;20448;-77
2020/12/15 04:03:07;;;;;;;3.73;3.30;;;9.50;99.90;;;;;;4974525;28;20414;-78
2020/12/15 04:05:33;;;;;;;3.23;2.93;;;9.50;99.90;;;;;;4971941;28;20467;-78
2020/12/15 04:07:59;;;;;;;3.70;2.83;;;9.50;99.90;;;;;;4972494;28;20426;-77
2020/12/15 04:10:25;;;;;;;3.63;3.17;;;9.50;99.90;;;;;;4973097;28;20468;-78
2020/12/15 04:12:50;;;;;;;4.00;2.80;;;9.50;99.90;;;;;;4975131;28;20195;-78
2020/12/15 04:15:16;;;;;;;5.00;2.80;;;9.50;99.90;;;;;;4964517;28;20207;-79
2020/12/15 04:17:42;;;;;;;3.60;3.17;;;9.50;99.90;;;;;;4958429;28;20250;-78
2020/12/15 04:20:08;;;;;;;3.23;2.93;;;9.50;99.90;;;;;;4974312;28;20297;-77
2020/12/15 04:22:34;;;;;;;3.03;2.70;;;9.50;99.90;;;;;;4974848;28;20189;-77
2020/12/15 04:25:00;;;;;;;2.97;2.67;;;9.50;99.90;;;;;;4977675;28;20820;-78
2020/12/15 04:27:27;;;;;;;2.33;2.13;;;9.60;99.90;;;;;;4964143;28;20258;-77
2020/12/15 04:29:52;;;;;;;4.53;2.43;;;9.60;99.90;;;;;;4974073;28;20442;-78
2020/12/15 04:32:18;;;;;;;2.30;2.10;;;9.70;99.90;;;;;;4974303;28;20913;-77
2020/12/15 04:34:44;;;;;;;2.90;2.70;;;9.60;99.90;;;;;;4973136;28;20220;-78
2020/12/15 04:37:10;;;;;;;3.60;2.87;;;9.60;99.90;;;;;;4960794;28;20456;-78
2020/12/15 04:39:35;;;;;;;3.37;2.60;;;9.50;99.90;;;;;;4974077;28;20219;-78
2020/12/15 04:42:01;;;;;;;2.40;2.20;;;9.50;99.90;;;;;;4974168;28;20198;-78
2020/12/15 04:44:28;;;;;;;2.50;2.17;;;9.50;99.90;;;;;;4963596;28;20282;-79
2020/12/15 04:47:12;;;;;;;2.40;2.20;;;9.50;99.90;;;;;;4962142;28;20665;-78
2020/12/15 04:50:07;;;;;;;2.57;2.20;;;9.50;99.90;;;;;;4956034;28;20863;-79
2020/12/15 04:52:45;;;;;;;2.40;2.10;;;9.40;99.90;;;;;;4973022;28;20449;-79
2020/12/15 04:55:12;;;;;;;1.93;1.83;;;9.40;99.90;;;;;;4954437;28;20479;-78
2020/12/15 04:57:41;;;;;;;2.50;1.90;;;9.40;99.90;;;;;;4962823;28;20464;-79
2020/12/15 05:00:08;;;;;;;2.17;1.57;;;9.40;99.90;;;;;;4972019;28;20454;-78
2020/12/15 05:02:41;;;;;;;2.53;2.10;;;9.40;99.90;;;;;;4974318;28;20439;-79
2020/12/15 05:05:07;;;;;;;3.40;3.20;;;9.40;99.90;;;;;;4968110;28;20517;-78
2020/12/15 05:07:42;;;;;;;2.53;2.33;;;9.50;99.90;;;;;;4967861;28;20480;-78
2020/12/15 05:10:09;;;;;;;2.30;2.00;;;9.50;99.90;;;;;;4973712;28;20450;-80
2020/12/15 05:12:35;;;;;;;3.93;2.10;;;9.50;99.90;;;;;;4974057;28;20913;-78
2020/12/15 05:15:02;;;;;;;4.77;3.03;;;9.40;99.90;;;;;;4971957;28;20472;-78
2020/12/15 05:17:32;;;;;;;4.10;3.10;;;9.40;99.90;;;;;;4966698;28;20436;-79
2020/12/15 05:19:59;;;;;;;3.30;2.37;;;9.40;99.90;;;;;;4973597;28;20971;-79
2020/12/15 05:22:36;;;;;;;3.37;1.80;;;9.40;99.90;;;;;;4973434;28;20530;-79
2020/12/15 05:25:04;;;;;;;2.63;2.30;;;9.50;99.90;;;;;;4968284;28;20518;-79
2020/12/15 05:27:30;;;;;;;1.67;1.57;;;9.50;99.90;;;;;;4959155;28;20914;-79
2020/12/15 05:30:25;;;;;;;2.83;1.90;;;9.50;99.90;;;;;;4972205;28;20532;-79
2020/12/15 05:32:54;;;;;;;2.30;1.30;;;9.60;99.90;;;;;;4964906;28;20209;-79
2020/12/15 05:35:29;;;;;;;1.90;1.70;;;9.60;99.90;;;;;;4971747;28;20509;-79
2020/12/15 05:38:00;;;;;;;1.53;1.43;;;9.60;99.90;;;;;;4984330;28;20433;-80
2020/12/15 05:40:26;;;;;;;2.20;1.80;;;9.60;99.90;;;;;;4984713;28;21010;-80
2020/12/15 05:42:54;;;;;;;2.07;1.67;;;9.50;99.90;;;;;;4973992;28;20528;-80
2020/12/15 05:45:23;;;;;;;2.07;1.67;;;9.60;99.90;;;;;;4972162;28;20984;-80
2020/12/15 05:47:51;;;;;;;3.33;2.27;;;9.50;99.90;;;;;;4970578;28;20422;-80
2020/12/15 05:50:25;;;;;;;3.40;2.73;;;9.50;99.90;;;;;;4971656;28;20482;-80
2020/12/15 05:53:02;;;;;;;3.03;2.50;;;9.50;99.90;;;;;;4973620;28;20876;-79
2020/12/15 05:55:28;;;;;;;3.97;2.53;;;9.50;99.90;;;;;;4956451;28;20474;-80
2020/12/15 05:57:54;;;;;;;3.57;2.43;;;9.40;99.90;;;;;;4970530;28;20911;-81
2020/12/15 06:00:21;;;;;;;3.90;2.90;;;9.40;99.90;;;;;;4974926;28;20207;-80
2020/12/15 06:03:01;;;;;;;5.40;3.60;;;9.30;99.90;;;;;;4975164;28;20924;-81
2020/12/15 06:05:29;;;;;;;5.23;3.50;;;9.30;99.90;;;;;;4960629;28;20469;-80
2020/12/15 06:07:56;;;;;;;3.87;3.33;;;9.30;99.90;;;;;;4978213;28;20428;-82
2020/12/15 06:10:23;;;;;;;6.17;4.30;;;9.20;99.90;;;;;;4973792;28;20449;-81
2020/12/15 06:12:50;;;;;;;4.27;3.07;;;9.20;99.90;;;;;;4975162;28;20464;-81
2020/12/15 06:15:16;;;;;;;4.63;3.10;;;9.20;99.90;;;;;;4974801;28;20457;-81
2020/12/15 06:17:49;;;;;;;2.83;2.47;;;9.20;99.90;;;;;;4973930;28;20441;-81
2020/12/15 06:20:19;;;;;;;2.80;2.20;;;9.30;99.90;;;;;;4971615;28;21349;-79
2020/12/15 06:22:51;;;;;;;3.73;2.13;;;9.30;99.90;;;;;;4972570;28;20446;-79
2020/12/15 06:25:24;;;;;;;3.60;2.73;;;9.20;99.90;;;;;;4977032;28;20468;-79
2020/12/15 06:27:59;;;;;;;3.50;1.80;;;9.20;99.90;;;;;;4984272;28;20428;-78
2020/12/15 06:30:28;;;;;;;2.25;1.65;;;9.20;99.90;;;;;;4972319;28;20473;-78
2020/12/15 06:33:07;;;;;;;2.90;2.00;;;9.20;99.90;;;;;;4972033;28;20206;-79
2020/12/15 06:35:33;;;;;;;1.80;1.70;;;9.10;99.90;;;;;;4967828;28;20502;-78
2020/12/15 06:38:00;;;;;;;2.00;1.70;;;9.20;99.90;;;;;;4954300;28;20439;-78
2020/12/15 06:40:38;;;;;;;2.93;2.10;;;9.20;99.90;;;;;;4964017;28;20207;-79
2020/12/15 06:43:04;;;;;;;2.60;1.90;;;9.30;99.90;;;;;;4969830;28;20456;-79
2020/12/15 06:45:29;;;;;;;2.40;1.90;;;9.30;99.90;;;;;;4956011;28;20571;-79
2020/12/15 06:48:00;;;;;;;3.30;2.20;;;9.30;99.90;;;;;;4961550;28;20175;-80
2020/12/15 06:50:26;;;;;;;1.53;1.20;;;9.30;99.90;;;;;;4973084;28;20227;-80
2020/12/15 06:52:53;;;;;;;1.90;1.70;;;9.40;99.90;;;;;;4974077;28;20432;-80
2020/12/15 06:55:31;;;;;;;1.57;1.47;;;9.40;99.90;;;;;;4965605;28;20207;-80
2020/12/15 06:58:00;;;;;;;1.60;1.27;;;9.50;99.90;;;;;;4975960;28;20449;-79
2020/12/15 07:00:34;;;;;;;2.23;1.60;;;9.50;99.90;;;;;;4974249;28;20989;-79
2020/12/15 07:03:01;;;;;;;1.63;1.53;;;9.50;99.90;;;;;;4975853;28;20439;-79
2020/12/15 07:05:31;;;;;;;4.73;2.87;;;9.50;99.90;;;;;;4975486;28;20472;-79
2020/12/15 07:07:58;;;;;;;1.83;1.73;;;9.40;99.90;;;;;;4964254;28;21002;-80
2020/12/15 07:10:26;;;;;;;3.07;1.87;;;9.30;99.90;;;;;;4974756;28;20536;-79
2020/12/15 07:12:52;;;;;;;3.70;2.43;;;9.30;99.90;;;;;;4972876;28;21046;-79
2020/12/15 07:15:19;;;;;;;2.80;2.00;;;9.30;99.90;;;;;;4955752;28;20476;-79
2020/12/15 07:17:50;;;;;;;2.53;2.30;;;9.20;99.90;;;;;;4969196;28;20469;-79
2020/12/15 07:20:18;;;;;;;2.83;2.33;;;9.20;99.90;;;;;;4975033;28;20495;-78
2020/12/15 07:22:44;;;;;;;3.17;2.60;;;9.20;99.90;;;;;;4974143;28;20447;-79
2020/12/15 07:25:11;;;;;;;2.33;2.13;;;9.10;99.90;;;;;;4973679;28;20872;-79
2020/12/15 07:27:38;;;;;;;2.83;2.13;;;9.10;99.90;;;;;;4966731;28;20459;-78
2020/12/15 07:30:10;;;;;;;4.33;1.93;;;9.10;99.90;;;;;;4975208;28;20484;-77
2020/12/15 07:32:37;;;;;;;5.30;2.27;;;9.20;99.90;;;;;;4975441;28;20441;-78
2020/12/15 07:35:08;;;;;;;2.10;1.90;;;9.20;99.90;;;;;;4971354;28;20477;-77
2020/12/15 07:37:39;;;;;;;2.17;1.93;;;9.20;99.90;;;;;;4969384;28;20523;-79
2020/12/15 07:40:07;;;;;;;2.10;1.90;;;9.10;99.90;;;;;;4973859;28;20464;-77
2020/12/15 07:42:33;;;;;;;3.20;1.93;;;9.10;99.90;;;;;;4975122;28;20454;-77
2020/12/15 07:45:01;;;;;;;3.77;1.80;;;9.00;99.90;;;;;;4976514;28;20905;-77
2020/12/15 07:47:27;;;;;;;1.43;1.33;;;9.00;99.90;;;;;;4970027;28;20458;-78
2020/12/15 07:49:56;;;;;;;2.43;2.00;;;9.00;99.90;;;;;;4975362;28;20447;-78
2020/12/15 07:52:33;;;;;;;1.57;1.47;;;8.90;99.90;;;;;;4974883;28;20430;-78
2020/12/15 07:55:24;;;;;;;2.17;1.97;;;8.90;99.90;;;;;;4974602;28;20446;-78
2020/12/15 07:57:50;;;;;;;1.57;1.47;;;8.90;99.90;;;;;;4998039;28;20969;-78
2020/12/15 08:00:21;;;;;;;2.30;2.10;;;9.00;99.90;;;;;;4973877;28;20539;-78
2020/12/15 08:02:48;;;;;;;2.30;2.10;;;8.90;99.90;;;;;;4974841;28;20438;-79
2020/12/15 08:05:23;;;;;;;2.13;1.93;;;8.90;99.90;;;;;;4974537;28;20450;-79
2020/12/15 08:08:03;;;;;;;2.30;2.10;;;8.90;99.90;;;;;;4964182;28;20423;-79
2020/12/15 08:10:33;;;;;;;2.50;2.30;;;8.90;99.90;;;;;;4974549;28;20463;-79
2020/12/15 08:13:01;;;;;;;2.03;1.90;;;8.90;99.90;;;;;;4974404;28;20945;-79
2020/12/15 08:15:36;;;;;;;2.33;2.13;;;8.90;99.90;;;;;;4965556;28;20957;-80
2020/12/15 08:18:06;;;;;;;3.10;2.70;;;8.90;99.90;;;;;;4966868;28;20425;-80
2020/12/15 08:20:34;;;;;;;2.88;2.63;;;8.80;99.90;;;;;;4974092;28;20521;-79
2020/12/15 08:23:11;;;;;;;2.63;2.00;;;8.80;99.90;;;;;;4974108;28;20190;-80
2020/12/15 08:25:38;;;;;;;2.23;2.03;;;8.90;99.90;;;;;;4972921;28;21047;-77
2020/12/15 08:28:09;;;;;;;1.80;1.60;;;8.90;99.90;;;;;;4973193;28;20435;-79
2020/12/15 08:30:38;;;;;;;2.03;1.70;;;8.80;99.90;;;;;;4974541;28;20639;-79
2020/12/15 08:33:04;;;;;;;2.70;1.60;;;8.90;99.90;;;;;;4975252;28;20423;-79
2020/12/15 08:35:30;;;;;;;1.50;1.30;;;8.90;99.90;;;;;;4969365;28;20456;-78
2020/12/15 08:38:01;;;;;;;1.97;1.30;;;8.90;99.90;;;;;;4967607;28;20669;-78
2020/12/15 08:40:27;;;;;;;2.90;1.60;;;9.00;99.90;;;;;;4974024;28;20205;-78
2020/12/15 08:43:03;;;;;;;1.87;1.70;;;9.00;99.90;;;;;;4974014;28;20439;-78
2020/12/15 08:45:29;;;;;;;1.70;1.30;;;9.00;99.90;;;;;;4964256;28;20470;-79
2020/12/15 08:47:57;;;;;;;2.97;1.60;;;8.90;99.90;;;;;;4972408;28;20494;-78
2020/12/15 08:50:27;;;;;;;4.85;1.65;;;8.90;99.90;;;;;;4987055;23;21171;-79
2020/12/15 08:53:07;;;;;;;2.20;1.55;;;8.90;99.90;;;;;;4971691;28;20199;-79
2020/12/15 08:55:35;;;;;;;2.15;1.58;;;8.90;99.90;;;;;;4967521;28;20218;-79
2020/12/15 08:58:11;;;;;;;3.10;1.92;;;9.00;99.90;;;;;;4971908;28;20175;-79
2020/12/15 09:00:40;;;;;;;2.90;2.60;;;9.00;99.90;;;;;;4972958;28;20214;-79
2020/12/15 09:03:11;;;;;;;3.35;2.60;;;9.00;99.90;;;;;;4973398;28;20717;-79
2020/12/15 09:05:56;;;;;;;1.77;1.53;;;9.00;99.90;;;;;;4969988;28;20228;-79
2020/12/15 09:08:24;;;;;;;3.00;2.10;;;9.10;99.90;;;;;;4971468;28;20424;-80
2020/12/15 09:10:55;;;;;;;2.40;2.10;;;9.00;99.90;;;;;;4974306;28;20455;-79
2020/12/15 09:13:22;;;;;;;2.30;1.80;;;9.00;99.90;;;;;;4972924;28;20173;-78
2020/12/15 09:15:50;;;;;;;1.63;1.50;;;9.00;99.90;;;;;;4969707;28;20468;-78
2020/12/15 09:18:17;;;;;;;1.20;1.10;;;9.10;99.90;;;;;;4973466;28;20438;-78
2020/12/15 09:20:45;;;;;;;4.93;1.10;;;9.20;99.90;;;;;;4971959;28;20613;-79
2020/12/15 09:23:11;;;;;;;2.20;1.00;;;9.20;99.90;;;;;;4972815;28;20420;-79
2020/12/15 09:25:37;;;;;;;1.97;1.40;;;9.20;99.90;;;;;;4971882;28;20472;-80
2020/12/15 09:28:03;;;;;;;1.77;1.30;;;9.20;99.90;;;;;;4965068;28;20438;-78
2020/12/15 09:30:28;;;;;;;1.63;1.20;;;9.20;99.90;;;;;;4972632;28;20212;-79
2020/12/15 09:32:54;;;;;;;2.27;1.30;;;9.30;99.90;;;;;;4971738;28;20551;-77
2020/12/15 09:35:20;;;;;;;1.60;1.50;;;9.30;99.90;;;;;;4970468;28;20695;-78
2020/12/15 09:37:46;;;;;;;2.07;1.70;;;9.30;99.90;;;;;;4966243;28;20545;-78
2020/12/15 09:40:13;;;;;;;2.87;1.97;;;9.30;99.90;;;;;;4968973;28;20225;-78
2020/12/15 09:42:43;;;;;;;1.87;1.67;;;9.20;99.90;;;;;;4972689;28;20985;-77
2020/12/15 09:45:09;;;;;;;2.60;1.77;;;9.30;99.90;;;;;;4972016;28;20521;-78
2020/12/15 09:47:41;;;;;;;2.13;1.33;;;9.20;99.90;;;;;;4969216;28;20434;-80
2020/12/15 09:50:07;;;;;;;2.10;1.53;;;9.20;99.90;;;;;;4972634;28;20441;-78
2020/12/15 09:52:33;;;;;;;2.13;1.73;;;9.20;99.90;;;;;;4973287;28;20509;-78
2020/12/15 09:55:01;;;;;;;2.10;1.87;;;9.20;99.90;;;;;;4974555;28;20458;-78
2020/12/15 09:57:27;;;;;;;1.80;1.63;;;9.20;99.90;;;;;;4970452;28;20220;-79
2020/12/15 09:59:54;;;;;;;2.13;1.63;;;9.20;99.90;;;;;;4968907;28;20455;-79
2020/12/15 10:02:19;;;;;;;1.90;1.80;;;9.20;99.90;;;;;;4972224;28;20274;-78
2020/12/15 10:04:46;;;;;;;2.10;1.80;;;9.20;99.90;;;;;;4972399;28;20470;-79
2020/12/15 10:07:13;;;;;;;2.20;1.80;;;9.20;99.90;;;;;;4970868;28;20179;-77
2020/12/15 10:09:38;;;;;;;2.33;1.93;;;9.20;99.90;;;;;;4972085;28;20471;-78
2020/12/15 10:12:04;;;;;;;4.03;1.70;;;9.30;99.90;;;;;;4972186;28;20427;-78
2020/12/15 10:14:30;;;;;;;2.00;1.83;;;9.30;99.90;;;;;;4972417;28;20210;-78
2020/12/15 10:16:55;;;;;;;3.60;2.37;;;9.30;99.90;;;;;;4957339;28;20434;-78
2020/12/15 10:19:21;;;;;;;2.80;2.50;;;9.30;99.90;;;;;;4971223;28;20214;-77
2020/12/15 10:21:47;;;;;;;2.77;2.57;;;9.30;99.90;;;;;;4971076;28;20190;-78
2020/12/15 10:24:12;;;;;;;3.77;1.90;;;9.40;99.90;;;;;;4971639;28;20209;-77
2020/12/15 10:26:38;;;;;;;3.60;2.53;;;9.40;99.90;;;;;;4956805;28;20251;-78
2020/12/15 10:29:04;;;;;;;6.33;4.10;;;9.30;99.90;;;;;;4972172;28;20210;-77
2020/12/15 10:31:30;;;;;;;8.93;4.47;;;9.30;99.90;;;;;;4971976;28;20183;-78
2020/12/15 10:33:55;;;;;;;3.47;2.80;;;9.40;99.90;;;;;;4971738;28;20265;-77
2020/12/15 10:36:21;;;;;;;6.17;2.67;;;9.40;99.90;;;;;;4955447;28;20187;-78
2020/12/15 10:38:47;;;;;;;4.27;2.87;;;9.40;99.90;;;;;;4970996;28;20230;-78
2020/12/15 10:41:12;;;;;;;2.70;2.50;;;9.50;99.90;;;;;;4972091;28;20560;-78
2020/12/15 10:43:38;;;;;;;4.33;2.43;;;9.60;99.90;;;;;;4971624;28;20550;-78
2020/12/15 10:46:04;;;;;;;2.40;2.10;;;9.60;99.90;;;;;;4966592;28;20646;-77
2020/12/15 10:48:30;;;;;;;1.97;1.67;;;9.60;99.90;;;;;;4966333;28;20414;-78
2020/12/15 10:50:56;;;;;;;3.40;2.00;;;9.60;99.90;;;;;;4969829;28;20626;-78
2020/12/15 10:53:22;;;;;;;1.67;1.40;;;9.50;99.90;;;;;;4970942;28;20520;-77
2020/12/15 10:55:51;;;;;;;1.90;1.67;;;9.60;99.90;;;;;;4978790;28;20212;-79
2020/12/15 10:58:17;;;;;;;1.77;1.27;;;9.60;99.90;;;;;;4970549;28;20792;-78
2020/12/15 11:00:44;;;;;;;2.50;1.40;;;9.60;99.90;;;;;;4959929;28;20442;-79
2020/12/15 11:03:10;;;;;;;1.30;1.20;;;9.70;99.90;;;;;;4957996;28;20412;-79
2020/12/15 11:05:36;;;;;;;1.70;1.40;;;9.60;99.90;;;;;;4955280;28;20470;-79
2020/12/15 11:08:02;;;;;;;1.47;1.00;;;9.60;99.90;;;;;;4952717;28;20515;-79
2020/12/15 11:10:27;;;;;;;2.20;1.57;;;9.60;99.90;;;;;;4972136;28;20229;-78
2020/12/15 11:12:53;;;;;;;1.90;1.70;;;9.60;99.90;;;;;;4972319;28;20435;-79
2020/12/15 11:15:22;;;;;;;2.70;1.37;;;9.60;99.90;;;;;;4970347;28;20590;-78
2020/12/15 11:17:47;;;;;;;1.43;1.33;;;9.60;99.90;;;;;;4969391;28;20529;-78
2020/12/15 11:20:13;;;;;;;3.30;1.50;;;9.60;99.90;;;;;;4971274;28;20537;-78
2020/12/15 11:22:40;;;;;;;2.17;1.40;;;9.60;99.90;;;;;;4970602;28;20666;-79
2020/12/15 11:25:06;;;;;;;1.90;1.53;;;9.60;99.90;;;;;;4975614;28;20272;-80
2020/12/15 11:27:31;;;;;;;3.50;1.60;;;9.70;99.90;;;;;;4965334;28;20431;-78
2020/12/15 11:29:57;;;;;;;2.40;1.80;;;9.70;99.90;;;;;;4971685;28;20210;-79
2020/12/15 11:32:23;;;;;;;3.53;1.83;;;9.70;99.90;;;;;;4970565;28;20573;-80
2020/12/15 11:34:49;;;;;;;2.27;2.07;;;9.60;99.90;;;;;;4973264;28;20285;-79
2020/12/15 11:37:18;;;;;;;4.73;2.40;;;9.60;99.90;;;;;;4960666;28;20547;-80
2020/12/15 11:39:44;;;;;;;2.20;2.00;;;9.60;99.90;;;;;;4954602;28;20447;-80
2020/12/15 11:42:10;;;;;;;2.27;2.07;;;9.70;99.90;;;;;;4969526;28;20775;-79
2020/12/15 11:44:37;;;;;;;2.93;2.47;;;9.70;99.90;;;;;;4973892;28;20215;-80
2020/12/15 11:47:03;;;;;;;2.63;2.33;;;9.70;99.90;;;;;;4973521;28;20434;-79
2020/12/15 11:49:29;;;;;;;2.47;2.30;;;9.60;99.90;;;;;;4975439;28;20450;-78
2020/12/15 11:51:56;;;;;;;2.60;2.40;;;9.60;99.90;;;;;;4975412;28;20268;-77
2020/12/15 11:54:22;;;;;;;4.10;2.63;;;9.70;99.90;;;;;;4973513;28;20525;-79
2020/12/15 11:56:50;;;;;;;4.53;2.77;;;9.70;99.90;;;;;;4966519;28;20438;-77
2020/12/15 11:59:17;;;;;;;2.67;2.33;;;9.70;99.90;;;;;;4975803;28;20461;-78
2020/12/15 12:01:42;;;;;;;3.30;2.03;;;9.80;99.90;;;;;;4974212;28;20991;-78
2020/12/15 12:04:08;;;;;;;2.93;2.63;;;9.80;99.90;;;;;;4974246;28;20485;-79
2020/12/15 12:06:34;;;;;;;2.63;2.40;;;9.80;99.90;;;;;;4970346;28;20585;-79
2020/12/15 12:09:01;;;;;;;3.40;2.50;;;9.70;99.90;;;;;;4972964;28;20214;-78
2020/12/15 12:11:27;;;;;;;3.33;2.23;;;9.70;99.90;;;;;;4974540;28;20442;-78
2020/12/15 12:13:53;;;;;;;4.17;2.70;;;9.70;99.90;;;;;;4974764;28;20893;-78
2020/12/15 12:16:22;;;;;;;3.20;2.50;;;9.70;99.90;;;;;;4968930;28;20875;-80
2020/12/15 12:18:48;;;;;;;4.40;3.23;;;9.70;99.90;;;;;;4975031;28;20431;-79
2020/12/15 12:21:13;;;;;;;4.90;3.50;;;9.70;99.90;;;;;;4973879;28;20521;-79
2020/12/15 12:23:41;;;;;;;6.50;3.90;;;9.70;99.90;;;;;;4956794;28;20264;-79
2020/12/15 12:26:07;;;;;;;4.87;3.53;;;9.70;99.90;;;;;;4960580;28;20261;-78
2020/12/15 12:28:33;;;;;;;4.90;3.70;;;9.70;99.90;;;;;;4973330;28;20949;-78
2020/12/15 12:30:59;;;;;;;4.97;3.90;;;9.70;99.90;;;;;;5005474;28;20450;-78
2020/12/15 12:33:24;;;;;;;7.07;3.43;;;9.60;99.90;;;;;;4973771;28;20198;-78
2020/12/15 12:35:53;;;;;;;3.80;3.23;;;9.70;99.90;;;;;;4972032;28;20211;-78
2020/12/15 12:38:20;;;;;;;4.83;4.43;;;9.70;99.90;;;;;;4972434;28;20183;-80
2020/12/15 12:40:47;;;;;;;3.97;3.63;;;9.70;99.90;;;;;;4972867;28;20478;-79
2020/12/15 12:43:14;;;;;;;5.23;3.90;;;9.70;99.90;;;;;;4974952;28;20829;-78
2020/12/15 12:45:40;;;;;;;4.63;3.20;;;9.60;99.90;;;;;;4970491;28;20479;-78
2020/12/15 12:48:09;;;;;;;6.57;3.40;;;9.60;99.90;;;;;;4957529;28;20431;-80
2020/12/15 12:50:35;;;;;;;3.97;2.97;;;9.60;99.90;;;;;;4960665;28;20469;-79
2020/12/15 12:53:02;;;;;;;3.20;2.90;;;9.60;99.90;;;;;;4977645;28;20434;-80
2020/12/15 12:55:27;;;;;;;2.93;2.67;;;9.60;99.90;;;;;;4967400;28;20474;-79
2020/12/15 12:57:54;;;;;;;3.23;2.70;;;9.60;99.90;;;;;;4965881;28;20508;-80
2020/12/15 13:00:20;;;;;;;3.13;2.70;;;9.60;99.90;;;;;;4967334;28;20207;-80